sensor_id;sensor_type;location;lat;lon;timestamp;P1;durP1;ratioP1;P2;durP2;ratioP2
33104;SDS011;19476;51.448;6.674;2024-03-06T00:02:05;13.43;;;9.30;;
33104;SDS011;19476;51.448;6.674;2024-03-06T00:04:32;12.43;;;7.25;;
33104;SDS011;19476;51.448;6.674;2024-03-06T00:06:58;14.52;;;8.82;;
33104;SDS011;19476;51.448;6.674;2024-03-06T00:09:24;12.07;;;7.85;;
33104;SDS011;19476;51.448;6.674;2024-03-06T00:11:54;12.23;;;8.27;;
33104;SDS011;19476;51.448;6.674;2024-03-06T00:14:20;12.50;;;8.18;;
33104;SDS011;19476;51.448;6.674;2024-03-06T00:16:50;12.82;;;7.97;;
33104;SDS011;19476;51.448;6.674;2024-03-06T00:19:18;13.57;;;8.82;;
33104;SDS011;19476;51.448;6.674;2024-03-06T00:21:45;14.07;;;8.17;;
33104;SDS011;19476;51.448;6.674;2024-03-06T00:24:11;13.25;;;8.07;;
33104;SDS011;19476;51.448;6.674;2024-03-06T00:26:41;12.75;;;8.82;;
33104;SDS011;19476;51.448;6.674;2024-03-06T00:29:08;12.68;;;8.23;;
33104;SDS011;19476;51.448;6.674;2024-03-06T00:31:34;11.57;;;7.75;;
33104;SDS011;19476;51.448;6.674;2024-03-06T00:34:01;13.20;;;8.85;;
33104;SDS011;19476;51.448;6.674;2024-03-06T00:36:27;13.15;;;8.40;;
33104;SDS011;19476;51.448;6.674;2024-03-06T00:38:53;12.32;;;8.30;;
33104;SDS011;19476;51.448;6.674;2024-03-06T00:41:19;12.68;;;9.00;;
33104;SDS011;19476;51.448;6.674;2024-03-06T00:43:44;13.82;;;8.43;;
33104;SDS011;19476;51.448;6.674;2024-03-06T00:46:10;12.90;;;8.45;;
33104;SDS011;19476;51.448;6.674;2024-03-06T00:48:36;12.65;;;8.40;;
33104;SDS011;19476;51.448;6.674;2024-03-06T00:51:04;13.77;;;8.57;;
33104;SDS011;19476;51.448;6.674;2024-03-06T00:53:32;11.85;;;8.07;;
33104;SDS011;19476;51.448;6.674;2024-03-06T00:55:58;14.60;;;9.27;;
33104;SDS011;19476;51.448;6.674;2024-03-06T00:58:24;12.32;;;8.73;;
33104;SDS011;19476;51.448;6.674;2024-03-06T01:00:49;14.07;;;8.88;;
33104;SDS011;19476;51.448;6.674;2024-03-06T01:03:15;15.15;;;8.75;;
33104;SDS011;19476;51.448;6.674;2024-03-06T01:05:41;13.48;;;9.10;;
33104;SDS011;19476;51.448;6.674;2024-03-06T01:08:07;12.98;;;8.40;;
33104;SDS011;19476;51.448;6.674;2024-03-06T01:10:33;12.52;;;7.97;;
33104;SDS011;19476;51.448;6.674;2024-03-06T01:12:58;12.38;;;8.30;;
33104;SDS011;19476;51.448;6.674;2024-03-06T01:15:24;12.85;;;8.05;;
33104;SDS011;19476;51.448;6.674;2024-03-06T01:17:50;12.57;;;8.07;;
33104;SDS011;19476;51.448;6.674;2024-03-06T01:20:16;14.13;;;8.43;;
33104;SDS011;19476;51.448;6.674;2024-03-06T01:22:41;11.75;;;7.85;;
33104;SDS011;19476;51.448;6.674;2024-03-06T01:25:07;13.68;;;8.43;;
33104;SDS011;19476;51.448;6.674;2024-03-06T01:27:33;14.02;;;8.88;;
33104;SDS011;19476;51.448;6.674;2024-03-06T01:29:59;13.10;;;7.95;;
33104;SDS011;19476;51.448;6.674;2024-03-06T01:32:25;12.50;;;7.75;;
33104;SDS011;19476;51.448;6.674;2024-03-06T01:34:51;12.00;;;7.45;;
33104;SDS011;19476;51.448;6.674;2024-03-06T01:37:17;12.30;;;8.10;;
33104;SDS011;19476;51.448;6.674;2024-03-06T01:39:42;12.13;;;8.15;;
33104;SDS011;19476;51.448;6.674;2024-03-06T01:42:08;11.35;;;7.72;;
33104;SDS011;19476;51.448;6.674;2024-03-06T01:44:34;13.73;;;8.02;;
33104;SDS011;19476;51.448;6.674;2024-03-06T01:47:00;11.73;;;7.68;;
33104;SDS011;19476;51.448;6.674;2024-03-06T01:49:26;13.63;;;7.88;;
33104;SDS011;19476;51.448;6.674;2024-03-06T01:51:53;10.93;;;7.55;;
33104;SDS011;19476;51.448;6.674;2024-03-06T01:54:21;13.32;;;9.10;;
33104;SDS011;19476;51.448;6.674;2024-03-06T01:56:47;12.02;;;7.85;;
33104;SDS011;19476;51.448;6.674;2024-03-06T01:59:18;13.93;;;8.65;;
33104;SDS011;19476;51.448;6.674;2024-03-06T02:01:46;14.40;;;8.63;;
33104;SDS011;19476;51.448;6.674;2024-03-06T02:04:13;12.75;;;8.88;;
33104;SDS011;19476;51.448;6.674;2024-03-06T02:06:39;13.90;;;8.70;;
33104;SDS011;19476;51.448;6.674;2024-03-06T02:09:06;14.38;;;8.57;;
33104;SDS011;19476;51.448;6.674;2024-03-06T02:11:32;13.52;;;8.25;;
33104;SDS011;19476;51.448;6.674;2024-03-06T02:13:58;13.60;;;8.35;;
33104;SDS011;19476;51.448;6.674;2024-03-06T02:16:24;15.13;;;8.00;;
33104;SDS011;19476;51.448;6.674;2024-03-06T02:18:51;11.63;;;7.57;;
33104;SDS011;19476;51.448;6.674;2024-03-06T02:21:18;13.73;;;8.35;;
33104;SDS011;19476;51.448;6.674;2024-03-06T02:23:44;14.80;;;8.40;;
33104;SDS011;19476;51.448;6.674;2024-03-06T02:26:10;12.82;;;8.30;;
33104;SDS011;19476;51.448;6.674;2024-03-06T02:28:36;12.90;;;8.13;;
33104;SDS011;19476;51.448;6.674;2024-03-06T02:31:01;12.43;;;7.97;;
33104;SDS011;19476;51.448;6.674;2024-03-06T02:33:27;12.95;;;7.82;;
33104;SDS011;19476;51.448;6.674;2024-03-06T02:35:54;12.20;;;8.10;;
33104;SDS011;19476;51.448;6.674;2024-03-06T02:38:19;13.07;;;7.80;;
33104;SDS011;19476;51.448;6.674;2024-03-06T02:40:45;12.77;;;7.78;;
33104;SDS011;19476;51.448;6.674;2024-03-06T02:43:11;11.75;;;7.63;;
33104;SDS011;19476;51.448;6.674;2024-03-06T02:45:36;13.38;;;8.20;;
33104;SDS011;19476;51.448;6.674;2024-03-06T02:48:02;12.23;;;7.75;;
33104;SDS011;19476;51.448;6.674;2024-03-06T02:50:28;11.80;;;7.78;;
33104;SDS011;19476;51.448;6.674;2024-03-06T02:52:54;12.68;;;8.05;;
33104;SDS011;19476;51.448;6.674;2024-03-06T02:55:21;11.40;;;7.75;;
33104;SDS011;19476;51.448;6.674;2024-03-06T02:57:47;13.35;;;7.38;;
33104;SDS011;19476;51.448;6.674;2024-03-06T03:00:13;12.55;;;8.00;;
33104;SDS011;19476;51.448;6.674;2024-03-06T03:02:41;11.25;;;7.35;;
33104;SDS011;19476;51.448;6.674;2024-03-06T03:05:07;13.35;;;7.78;;
33104;SDS011;19476;51.448;6.674;2024-03-06T03:07:33;13.63;;;7.85;;
33104;SDS011;19476;51.448;6.674;2024-03-06T03:09:59;10.73;;;7.18;;
33104;SDS011;19476;51.448;6.674;2024-03-06T03:12:24;11.82;;;7.47;;
33104;SDS011;19476;51.448;6.674;2024-03-06T03:14:50;12.02;;;7.50;;
33104;SDS011;19476;51.448;6.674;2024-03-06T03:17:17;12.75;;;7.55;;
33104;SDS011;19476;51.448;6.674;2024-03-06T03:19:44;11.52;;;7.53;;
33104;SDS011;19476;51.448;6.674;2024-03-06T03:22:10;12.00;;;8.15;;
33104;SDS011;19476;51.448;6.674;2024-03-06T03:24:36;11.57;;;7.57;;
33104;SDS011;19476;51.448;6.674;2024-03-06T03:27:02;12.68;;;7.53;;
33104;SDS011;19476;51.448;6.674;2024-03-06T03:29:28;11.00;;;7.10;;
33104;SDS011;19476;51.448;6.674;2024-03-06T03:31:54;11.65;;;7.85;;
33104;SDS011;19476;51.448;6.674;2024-03-06T03:34:20;11.02;;;7.45;;
33104;SDS011;19476;51.448;6.674;2024-03-06T03:36:46;10.82;;;7.50;;
33104;SDS011;19476;51.448;6.674;2024-03-06T03:39:13;11.93;;;7.53;;
33104;SDS011;19476;51.448;6.674;2024-03-06T03:41:45;11.07;;;7.32;;
33104;SDS011;19476;51.448;6.674;2024-03-06T03:44:14;11.27;;;7.70;;
33104;SDS011;19476;51.448;6.674;2024-03-06T03:46:47;12.93;;;7.03;;
33104;SDS011;19476;51.448;6.674;2024-03-06T03:49:12;12.48;;;7.82;;
33104;SDS011;19476;51.448;6.674;2024-03-06T03:51:38;11.90;;;7.32;;
33104;SDS011;19476;51.448;6.674;2024-03-06T03:54:04;11.70;;;7.28;;
33104;SDS011;19476;51.448;6.674;2024-03-06T03:56:31;12.68;;;7.45;;
33104;SDS011;19476;51.448;6.674;2024-03-06T03:58:57;10.70;;;6.75;;
33104;SDS011;19476;51.448;6.674;2024-03-06T04:01:23;11.45;;;7.40;;
33104;SDS011;19476;51.448;6.674;2024-03-06T04:03:49;11.40;;;7.38;;
33104;SDS011;19476;51.448;6.674;2024-03-06T04:06:15;11.02;;;7.00;;
33104;SDS011;19476;51.448;6.674;2024-03-06T04:08:41;13.38;;;7.55;;
33104;SDS011;19476;51.448;6.674;2024-03-06T04:11:07;12.65;;;8.23;;
33104;SDS011;19476;51.448;6.674;2024-03-06T04:13:36;11.75;;;8.10;;
33104;SDS011;19476;51.448;6.674;2024-03-06T04:16:02;10.73;;;7.47;;
33104;SDS011;19476;51.448;6.674;2024-03-06T04:18:30;12.13;;;7.95;;
33104;SDS011;19476;51.448;6.674;2024-03-06T04:21:06;11.40;;;7.03;;
33104;SDS011;19476;51.448;6.674;2024-03-06T04:23:32;11.57;;;7.75;;
33104;SDS011;19476;51.448;6.674;2024-03-06T04:25:58;10.98;;;7.07;;
33104;SDS011;19476;51.448;6.674;2024-03-06T04:28:25;12.07;;;7.70;;
33104;SDS011;19476;51.448;6.674;2024-03-06T04:30:51;12.73;;;7.45;;
33104;SDS011;19476;51.448;6.674;2024-03-06T04:33:16;12.73;;;7.78;;
33104;SDS011;19476;51.448;6.674;2024-03-06T04:35:42;12.60;;;7.72;;
33104;SDS011;19476;51.448;6.674;2024-03-06T04:38:08;11.48;;;7.15;;
33104;SDS011;19476;51.448;6.674;2024-03-06T04:40:34;11.80;;;7.57;;
33104;SDS011;19476;51.448;6.674;2024-03-06T04:43:00;11.68;;;7.68;;
33104;SDS011;19476;51.448;6.674;2024-03-06T04:45:26;13.50;;;8.02;;
33104;SDS011;19476;51.448;6.674;2024-03-06T04:47:51;13.85;;;7.65;;
33104;SDS011;19476;51.448;6.674;2024-03-06T04:50:17;13.43;;;8.75;;
33104;SDS011;19476;51.448;6.674;2024-03-06T04:52:43;13.75;;;8.73;;
33104;SDS011;19476;51.448;6.674;2024-03-06T04:55:09;13.70;;;8.23;;
33104;SDS011;19476;51.448;6.674;2024-03-06T04:57:36;13.43;;;8.02;;
33104;SDS011;19476;51.448;6.674;2024-03-06T05:00:03;11.77;;;8.13;;
33104;SDS011;19476;51.448;6.674;2024-03-06T05:02:35;12.18;;;7.95;;
33104;SDS011;19476;51.448;6.674;2024-03-06T05:05:02;13.23;;;7.45;;
33104;SDS011;19476;51.448;6.674;2024-03-06T05:07:28;11.98;;;7.82;;
33104;SDS011;19476;51.448;6.674;2024-03-06T05:09:55;12.57;;;8.55;;
33104;SDS011;19476;51.448;6.674;2024-03-06T05:12:22;12.00;;;7.43;;
33104;SDS011;19476;51.448;6.674;2024-03-06T05:14:48;12.93;;;8.43;;
33104;SDS011;19476;51.448;6.674;2024-03-06T05:17:14;13.52;;;7.97;;
33104;SDS011;19476;51.448;6.674;2024-03-06T05:19:40;13.07;;;8.60;;
33104;SDS011;19476;51.448;6.674;2024-03-06T05:22:06;13.75;;;8.43;;
33104;SDS011;19476;51.448;6.674;2024-03-06T05:24:31;13.15;;;7.97;;
33104;SDS011;19476;51.448;6.674;2024-03-06T05:26:57;12.35;;;7.93;;
33104;SDS011;19476;51.448;6.674;2024-03-06T05:29:23;12.05;;;7.82;;
33104;SDS011;19476;51.448;6.674;2024-03-06T05:31:48;13.73;;;8.20;;
33104;SDS011;19476;51.448;6.674;2024-03-06T05:34:14;12.63;;;8.63;;
33104;SDS011;19476;51.448;6.674;2024-03-06T05:36:40;13.07;;;8.38;;
33104;SDS011;19476;51.448;6.674;2024-03-06T05:39:05;13.52;;;8.50;;
33104;SDS011;19476;51.448;6.674;2024-03-06T05:41:38;14.63;;;8.48;;
33104;SDS011;19476;51.448;6.674;2024-03-06T05:44:05;12.40;;;7.63;;
33104;SDS011;19476;51.448;6.674;2024-03-06T05:46:30;14.15;;;8.90;;
33104;SDS011;19476;51.448;6.674;2024-03-06T05:48:56;14.25;;;8.32;;
33104;SDS011;19476;51.448;6.674;2024-03-06T05:51:22;13.32;;;8.63;;
33104;SDS011;19476;51.448;6.674;2024-03-06T05:53:48;15.68;;;8.73;;
33104;SDS011;19476;51.448;6.674;2024-03-06T05:56:13;15.40;;;8.88;;
33104;SDS011;19476;51.448;6.674;2024-03-06T05:58:39;11.88;;;8.02;;
33104;SDS011;19476;51.448;6.674;2024-03-06T06:01:05;12.57;;;7.88;;
33104;SDS011;19476;51.448;6.674;2024-03-06T06:03:31;13.57;;;8.20;;
33104;SDS011;19476;51.448;6.674;2024-03-06T06:05:56;14.85;;;8.82;;
33104;SDS011;19476;51.448;6.674;2024-03-06T06:08:23;12.38;;;8.07;;
33104;SDS011;19476;51.448;6.674;2024-03-06T06:10:49;15.18;;;9.02;;
33104;SDS011;19476;51.448;6.674;2024-03-06T06:13:17;12.77;;;8.35;;
33104;SDS011;19476;51.448;6.674;2024-03-06T06:15:43;14.05;;;8.65;;
33104;SDS011;19476;51.448;6.674;2024-03-06T06:18:09;14.57;;;8.95;;
33104;SDS011;19476;51.448;6.674;2024-03-06T06:20:35;14.23;;;8.57;;
33104;SDS011;19476;51.448;6.674;2024-03-06T06:23:01;13.90;;;9.05;;
33104;SDS011;19476;51.448;6.674;2024-03-06T06:25:26;17.88;;;10.95;;
33104;SDS011;19476;51.448;6.674;2024-03-06T06:27:52;17.48;;;11.18;;
33104;SDS011;19476;51.448;6.674;2024-03-06T06:30:18;17.38;;;11.85;;
33104;SDS011;19476;51.448;6.674;2024-03-06T06:32:44;18.42;;;12.35;;
33104;SDS011;19476;51.448;6.674;2024-03-06T06:35:10;22.17;;;14.00;;
33104;SDS011;19476;51.448;6.674;2024-03-06T06:37:39;21.03;;;13.50;;
33104;SDS011;19476;51.448;6.674;2024-03-06T06:40:06;21.15;;;13.20;;
33104;SDS011;19476;51.448;6.674;2024-03-06T06:42:33;20.33;;;12.38;;
33104;SDS011;19476;51.448;6.674;2024-03-06T06:45:02;18.25;;;12.38;;
33104;SDS011;19476;51.448;6.674;2024-03-06T06:47:28;18.25;;;12.00;;
33104;SDS011;19476;51.448;6.674;2024-03-06T06:49:53;16.00;;;11.00;;
33104;SDS011;19476;51.448;6.674;2024-03-06T06:52:19;18.60;;;11.63;;
33104;SDS011;19476;51.448;6.674;2024-03-06T06:54:45;19.58;;;12.20;;
33104;SDS011;19476;51.448;6.674;2024-03-06T06:57:11;19.77;;;12.02;;
33104;SDS011;19476;51.448;6.674;2024-03-06T06:59:36;20.75;;;12.88;;
33104;SDS011;19476;51.448;6.674;2024-03-06T07:02:02;16.52;;;11.40;;
33104;SDS011;19476;51.448;6.674;2024-03-06T07:04:28;15.95;;;10.90;;
33104;SDS011;19476;51.448;6.674;2024-03-06T07:06:54;18.77;;;11.75;;
33104;SDS011;19476;51.448;6.674;2024-03-06T07:09:19;15.95;;;10.70;;
33104;SDS011;19476;51.448;6.674;2024-03-06T07:11:45;15.48;;;10.45;;
33104;SDS011;19476;51.448;6.674;2024-03-06T07:14:14;17.55;;;11.13;;
33104;SDS011;19476;51.448;6.674;2024-03-06T07:16:43;16.50;;;10.60;;
33104;SDS011;19476;51.448;6.674;2024-03-06T07:19:10;15.57;;;9.77;;
33104;SDS011;19476;51.448;6.674;2024-03-06T07:21:35;16.75;;;10.85;;
33104;SDS011;19476;51.448;6.674;2024-03-06T07:24:02;17.20;;;10.45;;
33104;SDS011;19476;51.448;6.674;2024-03-06T07:26:29;16.52;;;10.30;;
33104;SDS011;19476;51.448;6.674;2024-03-06T07:28:57;15.45;;;9.98;;
33104;SDS011;19476;51.448;6.674;2024-03-06T07:31:23;16.70;;;10.25;;
33104;SDS011;19476;51.448;6.674;2024-03-06T07:33:49;16.58;;;10.65;;
33104;SDS011;19476;51.448;6.674;2024-03-06T07:36:15;16.10;;;10.50;;
33104;SDS011;19476;51.448;6.674;2024-03-06T07:38:41;14.45;;;10.15;;
33104;SDS011;19476;51.448;6.674;2024-03-06T07:41:08;16.98;;;10.30;;
33104;SDS011;19476;51.448;6.674;2024-03-06T07:43:33;14.93;;;10.00;;
33104;SDS011;19476;51.448;6.674;2024-03-06T07:45:59;16.02;;;9.75;;
33104;SDS011;19476;51.448;6.674;2024-03-06T07:48:25;16.65;;;10.88;;
33104;SDS011;19476;51.448;6.674;2024-03-06T07:50:51;17.05;;;10.30;;
33104;SDS011;19476;51.448;6.674;2024-03-06T07:53:17;16.33;;;11.27;;
33104;SDS011;19476;51.448;6.674;2024-03-06T07:55:42;16.13;;;10.45;;
33104;SDS011;19476;51.448;6.674;2024-03-06T07:58:09;16.40;;;10.77;;
33104;SDS011;19476;51.448;6.674;2024-03-06T08:00:35;19.80;;;10.82;;
33104;SDS011;19476;51.448;6.674;2024-03-06T08:03:01;18.23;;;11.18;;
33104;SDS011;19476;51.448;6.674;2024-03-06T08:05:27;20.13;;;11.63;;
33104;SDS011;19476;51.448;6.674;2024-03-06T08:07:53;18.35;;;11.00;;
33104;SDS011;19476;51.448;6.674;2024-03-06T08:10:19;17.98;;;10.30;;
33104;SDS011;19476;51.448;6.674;2024-03-06T08:12:45;16.52;;;10.90;;
33104;SDS011;19476;51.448;6.674;2024-03-06T08:15:13;16.02;;;10.38;;
33104;SDS011;19476;51.448;6.674;2024-03-06T08:17:41;16.25;;;10.73;;
33104;SDS011;19476;51.448;6.674;2024-03-06T08:20:08;15.55;;;10.27;;
33104;SDS011;19476;51.448;6.674;2024-03-06T08:22:36;13.90;;;9.55;;
33104;SDS011;19476;51.448;6.674;2024-03-06T08:25:06;13.52;;;9.52;;
33104;SDS011;19476;51.448;6.674;2024-03-06T08:27:34;15.75;;;9.10;;
33104;SDS011;19476;51.448;6.674;2024-03-06T08:30:01;14.07;;;8.98;;
33104;SDS011;19476;51.448;6.674;2024-03-06T08:32:29;13.75;;;9.07;;
33104;SDS011;19476;51.448;6.674;2024-03-06T08:34:56;12.82;;;7.90;;
33104;SDS011;19476;51.448;6.674;2024-03-06T08:37:22;12.85;;;7.93;;
33104;SDS011;19476;51.448;6.674;2024-03-06T08:39:48;12.65;;;8.45;;
33104;SDS011;19476;51.448;6.674;2024-03-06T08:42:13;13.77;;;8.80;;
33104;SDS011;19476;51.448;6.674;2024-03-06T08:44:43;13.10;;;9.23;;
33104;SDS011;19476;51.448;6.674;2024-03-06T08:47:09;12.88;;;7.90;;
33104;SDS011;19476;51.448;6.674;2024-03-06T08:49:35;15.68;;;8.27;;
33104;SDS011;19476;51.448;6.674;2024-03-06T08:52:00;12.43;;;8.52;;
33104;SDS011;19476;51.448;6.674;2024-03-06T08:54:26;11.40;;;8.00;;
33104;SDS011;19476;51.448;6.674;2024-03-06T08:56:51;11.55;;;7.18;;
33104;SDS011;19476;51.448;6.674;2024-03-06T08:59:23;13.57;;;8.07;;
33104;SDS011;19476;51.448;6.674;2024-03-06T09:01:51;11.80;;;7.43;;
33104;SDS011;19476;51.448;6.674;2024-03-06T09:04:19;11.23;;;7.13;;
33104;SDS011;19476;51.448;6.674;2024-03-06T09:06:45;13.00;;;7.10;;
33104;SDS011;19476;51.448;6.674;2024-03-06T09:09:11;11.90;;;6.40;;
33104;SDS011;19476;51.448;6.674;2024-03-06T09:11:40;10.50;;;7.10;;
33104;SDS011;19476;51.448;6.674;2024-03-06T09:14:06;13.32;;;7.43;;
33104;SDS011;19476;51.448;6.674;2024-03-06T09:16:34;12.65;;;7.82;;
33104;SDS011;19476;51.448;6.674;2024-03-06T09:19:00;13.63;;;8.65;;
33104;SDS011;19476;51.448;6.674;2024-03-06T09:21:26;13.60;;;8.15;;
33104;SDS011;19476;51.448;6.674;2024-03-06T09:23:52;12.60;;;7.88;;
33104;SDS011;19476;51.448;6.674;2024-03-06T09:26:17;11.85;;;7.90;;
33104;SDS011;19476;51.448;6.674;2024-03-06T09:28:43;12.70;;;8.20;;
33104;SDS011;19476;51.448;6.674;2024-03-06T09:31:09;12.63;;;8.68;;
33104;SDS011;19476;51.448;6.674;2024-03-06T09:33:34;15.02;;;9.25;;
33104;SDS011;19476;51.448;6.674;2024-03-06T09:36:00;12.55;;;8.68;;
33104;SDS011;19476;51.448;6.674;2024-03-06T09:38:27;12.38;;;9.13;;
33104;SDS011;19476;51.448;6.674;2024-03-06T09:40:55;13.85;;;8.80;;
33104;SDS011;19476;51.448;6.674;2024-03-06T09:43:21;13.98;;;8.93;;
33104;SDS011;19476;51.448;6.674;2024-03-06T09:45:48;12.70;;;9.00;;
33104;SDS011;19476;51.448;6.674;2024-03-06T09:48:15;15.52;;;9.20;;
33104;SDS011;19476;51.448;6.674;2024-03-06T09:53:12;13.07;;;8.55;;
33104;SDS011;19476;51.448;6.674;2024-03-06T09:55:41;16.13;;;10.00;;
33104;SDS011;19476;51.448;6.674;2024-03-06T09:58:07;15.90;;;10.38;;
33104;SDS011;19476;51.448;6.674;2024-03-06T10:00:34;18.45;;;11.98;;
33104;SDS011;19476;51.448;6.674;2024-03-06T10:03:01;16.13;;;10.75;;
33104;SDS011;19476;51.448;6.674;2024-03-06T10:05:34;16.65;;;10.75;;
33104;SDS011;19476;51.448;6.674;2024-03-06T10:08:03;17.30;;;10.05;;
33104;SDS011;19476;51.448;6.674;2024-03-06T10:10:29;21.13;;;12.95;;
33104;SDS011;19476;51.448;6.674;2024-03-06T10:12:55;20.85;;;14.50;;
33104;SDS011;19476;51.448;6.674;2024-03-06T10:15:26;25.13;;;14.77;;
33104;SDS011;19476;51.448;6.674;2024-03-06T10:18:09;22.48;;;14.48;;
33104;SDS011;19476;51.448;6.674;2024-03-06T10:20:45;27.73;;;15.98;;
33104;SDS011;19476;51.448;6.674;2024-03-06T10:23:11;29.25;;;17.65;;
33104;SDS011;19476;51.448;6.674;2024-03-06T10:25:37;31.15;;;19.60;;
33104;SDS011;19476;51.448;6.674;2024-03-06T10:28:06;29.08;;;18.02;;
33104;SDS011;19476;51.448;6.674;2024-03-06T10:30:37;31.35;;;18.30;;
33104;SDS011;19476;51.448;6.674;2024-03-06T10:33:07;27.55;;;17.73;;
33104;SDS011;19476;51.448;6.674;2024-03-06T10:35:36;33.78;;;20.30;;
33104;SDS011;19476;51.448;6.674;2024-03-06T10:38:03;37.05;;;22.38;;
33104;SDS011;19476;51.448;6.674;2024-03-06T10:40:39;37.60;;;22.92;;
33104;SDS011;19476;51.448;6.674;2024-03-06T10:43:09;38.13;;;24.08;;
33104;SDS011;19476;51.448;6.674;2024-03-06T10:48:01;34.97;;;22.63;;
33104;SDS011;19476;51.448;6.674;2024-03-06T10:50:28;36.95;;;23.77;;
33104;SDS011;19476;51.448;6.674;2024-03-06T10:52:54;34.20;;;22.00;;
33104;SDS011;19476;51.448;6.674;2024-03-06T10:55:22;36.70;;;23.95;;
33104;SDS011;19476;51.448;6.674;2024-03-06T10:57:51;38.00;;;24.40;;
33104;SDS011;19476;51.448;6.674;2024-03-06T11:00:18;36.67;;;23.13;;
33104;SDS011;19476;51.448;6.674;2024-03-06T11:02:48;37.25;;;23.38;;
33104;SDS011;19476;51.448;6.674;2024-03-06T11:05:16;31.83;;;21.23;;
33104;SDS011;19476;51.448;6.674;2024-03-06T11:07:45;30.65;;;20.48;;
33104;SDS011;19476;51.448;6.674;2024-03-06T11:10:10;29.33;;;20.90;;
33104;SDS011;19476;51.448;6.674;2024-03-06T11:12:41;29.52;;;18.88;;
33104;SDS011;19476;51.448;6.674;2024-03-06T11:17:42;28.00;;;19.15;;
33104;SDS011;19476;51.448;6.674;2024-03-06T11:20:08;28.45;;;18.75;;
33104;SDS011;19476;51.448;6.674;2024-03-06T11:28:22;26.48;;;17.10;;
33104;SDS011;19476;51.448;6.674;2024-03-06T11:33:34;24.40;;;16.77;;
33104;SDS011;19476;51.448;6.674;2024-03-06T11:36:16;26.65;;;16.65;;
33104;SDS011;19476;51.448;6.674;2024-03-06T11:38:48;25.38;;;16.23;;
33104;SDS011;19476;51.448;6.674;2024-03-06T11:41:15;23.48;;;14.70;;
33104;SDS011;19476;51.448;6.674;2024-03-06T11:43:42;21.70;;;15.18;;
33104;SDS011;19476;51.448;6.674;2024-03-06T11:46:09;23.55;;;14.88;;
33104;SDS011;19476;51.448;6.674;2024-03-06T11:48:38;21.92;;;14.77;;
33104;SDS011;19476;51.448;6.674;2024-03-06T11:51:05;20.08;;;13.25;;
33104;SDS011;19476;51.448;6.674;2024-03-06T11:53:32;22.23;;;13.70;;
33104;SDS011;19476;51.448;6.674;2024-03-06T11:56:00;25.65;;;16.10;;
33104;SDS011;19476;51.448;6.674;2024-03-06T11:58:26;22.48;;;15.27;;
33104;SDS011;19476;51.448;6.674;2024-03-06T12:00:52;22.58;;;14.48;;
33104;SDS011;19476;51.448;6.674;2024-03-06T12:03:20;23.00;;;13.70;;
33104;SDS011;19476;51.448;6.674;2024-03-06T12:05:51;22.10;;;14.32;;
33104;SDS011;19476;51.448;6.674;2024-03-06T12:08:18;20.92;;;13.15;;
33104;SDS011;19476;51.448;6.674;2024-03-06T12:10:45;19.85;;;12.25;;
33104;SDS011;19476;51.448;6.674;2024-03-06T12:13:12;17.48;;;10.90;;
33104;SDS011;19476;51.448;6.674;2024-03-06T12:15:38;15.20;;;10.10;;
33104;SDS011;19476;51.448;6.674;2024-03-06T12:18:07;19.25;;;12.73;;
33104;SDS011;19476;51.448;6.674;2024-03-06T12:20:32;17.50;;;10.68;;
33104;SDS011;19476;51.448;6.674;2024-03-06T12:22:58;17.75;;;11.00;;
33104;SDS011;19476;51.448;6.674;2024-03-06T12:25:25;17.67;;;11.23;;
33104;SDS011;19476;51.448;6.674;2024-03-06T12:27:53;16.67;;;10.35;;
33104;SDS011;19476;51.448;6.674;2024-03-06T12:30:20;14.60;;;9.45;;
33104;SDS011;19476;51.448;6.674;2024-03-06T12:32:57;16.13;;;10.50;;
33104;SDS011;19476;51.448;6.674;2024-03-06T12:35:26;16.20;;;9.15;;
33104;SDS011;19476;51.448;6.674;2024-03-06T12:37:52;15.48;;;9.45;;
33104;SDS011;19476;51.448;6.674;2024-03-06T12:40:18;16.60;;;10.75;;
33104;SDS011;19476;51.448;6.674;2024-03-06T12:42:44;16.38;;;9.27;;
33104;SDS011;19476;51.448;6.674;2024-03-06T12:45:11;12.05;;;8.18;;
33104;SDS011;19476;51.448;6.674;2024-03-06T12:47:43;14.13;;;8.90;;
33104;SDS011;19476;51.448;6.674;2024-03-06T12:50:11;14.35;;;8.65;;
33104;SDS011;19476;51.448;6.674;2024-03-06T12:52:37;14.15;;;9.20;;
33104;SDS011;19476;51.448;6.674;2024-03-06T12:55:03;14.65;;;8.70;;
33104;SDS011;19476;51.448;6.674;2024-03-06T12:57:32;13.18;;;8.77;;
33104;SDS011;19476;51.448;6.674;2024-03-06T12:59:58;14.68;;;8.75;;
33104;SDS011;19476;51.448;6.674;2024-03-06T13:02:25;11.98;;;8.25;;
33104;SDS011;19476;51.448;6.674;2024-03-06T13:04:51;11.90;;;7.70;;
33104;SDS011;19476;51.448;6.674;2024-03-06T13:07:17;12.05;;;8.32;;
33104;SDS011;19476;51.448;6.674;2024-03-06T13:09:44;12.65;;;9.25;;
33104;SDS011;19476;51.448;6.674;2024-03-06T13:12:10;14.15;;;9.07;;
33104;SDS011;19476;51.448;6.674;2024-03-06T13:14:36;14.10;;;9.15;;
33104;SDS011;19476;51.448;6.674;2024-03-06T13:17:02;13.95;;;9.70;;
33104;SDS011;19476;51.448;6.674;2024-03-06T13:19:28;15.07;;;10.95;;
33104;SDS011;19476;51.448;6.674;2024-03-06T13:21:54;15.57;;;10.50;;
33104;SDS011;19476;51.448;6.674;2024-03-06T13:24:20;16.52;;;10.85;;
33104;SDS011;19476;51.448;6.674;2024-03-06T13:26:46;17.38;;;11.02;;
33104;SDS011;19476;51.448;6.674;2024-03-06T13:29:15;18.50;;;11.95;;
33104;SDS011;19476;51.448;6.674;2024-03-06T13:31:44;16.67;;;10.98;;
33104;SDS011;19476;51.448;6.674;2024-03-06T13:34:10;14.82;;;10.40;;
33104;SDS011;19476;51.448;6.674;2024-03-06T13:36:36;15.50;;;10.38;;
33104;SDS011;19476;51.448;6.674;2024-03-06T13:39:09;15.70;;;10.95;;
33104;SDS011;19476;51.448;6.674;2024-03-06T13:41:35;14.30;;;10.43;;
33104;SDS011;19476;51.448;6.674;2024-03-06T13:44:01;16.45;;;10.48;;
33104;SDS011;19476;51.448;6.674;2024-03-06T13:46:27;18.33;;;10.25;;
33104;SDS011;19476;51.448;6.674;2024-03-06T13:48:53;16.33;;;11.00;;
33104;SDS011;19476;51.448;6.674;2024-03-06T13:51:19;15.63;;;10.50;;
33104;SDS011;19476;51.448;6.674;2024-03-06T13:53:44;14.65;;;10.15;;
33104;SDS011;19476;51.448;6.674;2024-03-06T13:56:11;15.25;;;10.25;;
33104;SDS011;19476;51.448;6.674;2024-03-06T13:58:37;16.55;;;10.73;;
33104;SDS011;19476;51.448;6.674;2024-03-06T14:01:03;16.08;;;11.35;;
33104;SDS011;19476;51.448;6.674;2024-03-06T14:03:30;16.92;;;11.27;;
33104;SDS011;19476;51.448;6.674;2024-03-06T14:05:58;17.48;;;10.68;;
33104;SDS011;19476;51.448;6.674;2024-03-06T14:08:24;15.98;;;10.60;;
33104;SDS011;19476;51.448;6.674;2024-03-06T14:10:51;13.65;;;9.02;;
33104;SDS011;19476;51.448;6.674;2024-03-06T14:13:17;14.27;;;9.63;;
33104;SDS011;19476;51.448;6.674;2024-03-06T14:15:43;13.80;;;9.60;;
33104;SDS011;19476;51.448;6.674;2024-03-06T14:18:09;12.57;;;8.52;;
33104;SDS011;19476;51.448;6.674;2024-03-06T14:20:35;12.68;;;9.40;;
33104;SDS011;19476;51.448;6.674;2024-03-06T14:23:01;15.57;;;9.48;;
33104;SDS011;19476;51.448;6.674;2024-03-06T14:25:27;13.93;;;9.73;;
33104;SDS011;19476;51.448;6.674;2024-03-06T14:27:54;14.18;;;9.15;;
33104;SDS011;19476;51.448;6.674;2024-03-06T14:30:20;13.23;;;8.88;;
33104;SDS011;19476;51.448;6.674;2024-03-06T14:32:46;12.98;;;9.02;;
33104;SDS011;19476;51.448;6.674;2024-03-06T14:35:12;12.70;;;8.27;;
33104;SDS011;19476;51.448;6.674;2024-03-06T14:37:38;16.05;;;8.98;;
33104;SDS011;19476;51.448;6.674;2024-03-06T14:40:05;13.77;;;8.82;;
33104;SDS011;19476;51.448;6.674;2024-03-06T14:42:34;13.30;;;9.00;;
33104;SDS011;19476;51.448;6.674;2024-03-06T14:45:02;16.20;;;10.17;;